sensor_id;sensor_type;location;lat;lon;timestamp;P1;durP1;ratioP1;P2;durP2;ratioP2
30173;SDS011;16985;50.814;8.530;2022-10-30T00:00:40;19.98;;;8.38;;
30173;SDS011;16985;50.814;8.530;2022-10-30T00:03:14;17.35;;;8.35;;
30173;SDS011;16985;50.814;8.530;2022-10-30T00:05:44;20.45;;;9.23;;
30173;SDS011;16985;50.814;8.530;2022-10-30T00:08:13;20.38;;;8.70;;
30173;SDS011;16985;50.814;8.530;2022-10-30T00:10:41;16.63;;;8.52;;
30173;SDS011;16985;50.814;8.530;2022-10-30T00:13:08;19.77;;;7.72;;
30173;SDS011;16985;50.814;8.530;2022-10-30T00:15:34;22.48;;;8.02;;
30173;SDS011;16985;50.814;8.530;2022-10-30T00:18:01;25.38;;;8.20;;
30173;SDS011;16985;50.814;8.530;2022-10-30T00:20:27;18.77;;;7.78;;
30173;SDS011;16985;50.814;8.530;2022-10-30T00:22:53;15.60;;;7.43;;
30173;SDS011;16985;50.814;8.530;2022-10-30T00:25:18;21.88;;;7.97;;
30173;SDS011;16985;50.814;8.530;2022-10-30T00:27:44;18.58;;;8.32;;
30173;SDS011;16985;50.814;8.530;2022-10-30T00:30:10;15.30;;;8.48;;
30173;SDS011;16985;50.814;8.530;2022-10-30T00:32:40;14.57;;;7.63;;
30173;SDS011;16985;50.814;8.530;2022-10-30T00:35:07;21.02;;;9.23;;
30173;SDS011;16985;50.814;8.530;2022-10-30T00:37:34;15.48;;;8.27;;
30173;SDS011;16985;50.814;8.530;2022-10-30T00:40:00;18.88;;;7.72;;
30173;SDS011;16985;50.814;8.530;2022-10-30T00:42:29;13.20;;;8.32;;
30173;SDS011;16985;50.814;8.530;2022-10-30T00:44:56;21.45;;;9.10;;
30173;SDS011;16985;50.814;8.530;2022-10-30T00:47:23;22.83;;;8.93;;
30173;SDS011;16985;50.814;8.530;2022-10-30T00:50:26;18.90;;;8.97;;
30173;SDS011;16985;50.814;8.530;2022-10-30T00:55:36;20.42;;;9.25;;
30173;SDS011;16985;50.814;8.530;2022-10-30T00:58:32;19.35;;;9.88;;
30173;SDS011;16985;50.814;8.530;2022-10-30T01:01:04;24.02;;;10.35;;
30173;SDS011;16985;50.814;8.530;2022-10-30T01:03:35;21.13;;;10.15;;
30173;SDS011;16985;50.814;8.530;2022-10-30T01:06:04;28.08;;;10.93;;
30173;SDS011;16985;50.814;8.530;2022-10-30T01:08:33;20.48;;;10.70;;
30173;SDS011;16985;50.814;8.530;2022-10-30T01:10:59;24.15;;;10.50;;
30173;SDS011;16985;50.814;8.530;2022-10-30T01:24:17;29.10;;;11.43;;
30173;SDS011;16985;50.814;8.530;2022-10-30T01:33:10;30.38;;;13.07;;
30173;SDS011;16985;50.814;8.530;2022-10-30T01:38:46;23.45;;;11.88;;
30173;SDS011;16985;50.814;8.530;2022-10-30T01:41:19;34.70;;;12.63;;
30173;SDS011;16985;50.814;8.530;2022-10-30T01:43:47;23.77;;;12.63;;
30173;SDS011;16985;50.814;8.530;2022-10-30T01:52:04;23.77;;;11.60;;
30173;SDS011;16985;50.814;8.530;2022-10-30T01:57:15;27.88;;;12.05;;
30173;SDS011;16985;50.814;8.530;2022-10-30T02:00:11;25.08;;;11.75;;
30173;SDS011;16985;50.814;8.530;2022-10-30T02:02:44;21.25;;;10.88;;
30173;SDS011;16985;50.814;8.530;2022-10-30T02:05:13;26.52;;;10.85;;
30173;SDS011;16985;50.814;8.530;2022-10-30T02:07:58;23.98;;;10.77;;
30173;SDS011;16985;50.814;8.530;2022-10-30T02:10:25;25.10;;;10.95;;
30173;SDS011;16985;50.814;8.530;2022-10-30T02:12:52;22.70;;;10.07;;
30173;SDS011;16985;50.814;8.530;2022-10-30T02:15:21;23.70;;;9.57;;
30173;SDS011;16985;50.814;8.530;2022-10-30T02:17:47;16.10;;;9.65;;
30173;SDS011;16985;50.814;8.530;2022-10-30T02:20:17;19.02;;;9.77;;
30173;SDS011;16985;50.814;8.530;2022-10-30T02:22:44;14.25;;;8.85;;
30173;SDS011;16985;50.814;8.530;2022-10-30T02:25:11;16.27;;;8.20;;
30173;SDS011;16985;50.814;8.530;2022-10-30T02:27:37;14.35;;;8.73;;
30173;SDS011;16985;50.814;8.530;2022-10-30T02:30:07;14.30;;;7.68;;
30173;SDS011;16985;50.814;8.530;2022-10-30T02:32:33;18.45;;;8.82;;
30173;SDS011;16985;50.814;8.530;2022-10-30T02:34:59;12.82;;;8.02;;
30173;SDS011;16985;50.814;8.530;2022-10-30T02:37:26;11.70;;;7.57;;
30173;SDS011;16985;50.814;8.530;2022-10-30T02:39:52;10.70;;;7.55;;
30173;SDS011;16985;50.814;8.530;2022-10-30T02:42:17;15.55;;;7.88;;
30173;SDS011;16985;50.814;8.530;2022-10-30T02:44:43;15.82;;;8.95;;
30173;SDS011;16985;50.814;8.530;2022-10-30T02:47:09;11.48;;;7.05;;
30173;SDS011;16985;50.814;8.530;2022-10-30T02:49:35;12.10;;;7.28;;
30173;SDS011;16985;50.814;8.530;2022-10-30T02:52:01;18.70;;;7.90;;
30173;SDS011;16985;50.814;8.530;2022-10-30T02:54:27;12.00;;;6.82;;
30173;SDS011;16985;50.814;8.530;2022-10-30T02:56:53;12.65;;;7.00;;
30173;SDS011;16985;50.814;8.530;2022-10-30T02:59:20;15.05;;;7.47;;
30173;SDS011;16985;50.814;8.530;2022-10-30T03:01:47;11.63;;;6.45;;
30173;SDS011;16985;50.814;8.530;2022-10-30T03:04:13;12.75;;;7.00;;
30173;SDS011;16985;50.814;8.530;2022-10-30T03:06:39;16.55;;;7.28;;
30173;SDS011;16985;50.814;8.530;2022-10-30T03:09:04;12.23;;;6.60;;
30173;SDS011;16985;50.814;8.530;2022-10-30T03:11:32;9.63;;;6.78;;
30173;SDS011;16985;50.814;8.530;2022-10-30T03:13:58;13.35;;;6.78;;
30173;SDS011;16985;50.814;8.530;2022-10-30T03:16:24;13.40;;;7.45;;
30173;SDS011;16985;50.814;8.530;2022-10-30T03:18:56;9.70;;;6.32;;
30173;SDS011;16985;50.814;8.530;2022-10-30T03:21:23;9.05;;;6.85;;
30173;SDS011;16985;50.814;8.530;2022-10-30T03:23:50;11.13;;;6.43;;
30173;SDS011;16985;50.814;8.530;2022-10-30T03:26:18;11.23;;;6.35;;
30173;SDS011;16985;50.814;8.530;2022-10-30T03:28:48;8.43;;;6.88;;
30173;SDS011;16985;50.814;8.530;2022-10-30T03:31:15;8.55;;;6.10;;
30173;SDS011;16985;50.814;8.530;2022-10-30T03:33:43;8.98;;;5.80;;
30173;SDS011;16985;50.814;8.530;2022-10-30T03:36:10;11.82;;;7.10;;
30173;SDS011;16985;50.814;8.530;2022-10-30T03:38:38;13.30;;;6.65;;
30173;SDS011;16985;50.814;8.530;2022-10-30T03:41:04;9.45;;;6.53;;
30173;SDS011;16985;50.814;8.530;2022-10-30T03:43:31;12.05;;;7.07;;
30173;SDS011;16985;50.814;8.530;2022-10-30T03:45:57;12.88;;;7.53;;
30173;SDS011;16985;50.814;8.530;2022-10-30T03:48:24;13.13;;;6.82;;
30173;SDS011;16985;50.814;8.530;2022-10-30T03:50:54;14.43;;;6.30;;
30173;SDS011;16985;50.814;8.530;2022-10-30T03:53:22;15.65;;;6.63;;
30173;SDS011;16985;50.814;8.530;2022-10-30T03:55:50;10.73;;;7.35;;
30173;SDS011;16985;50.814;8.530;2022-10-30T03:58:22;9.60;;;6.40;;
30173;SDS011;16985;50.814;8.530;2022-10-30T04:00:50;9.05;;;6.05;;
30173;SDS011;16985;50.814;8.530;2022-10-30T04:03:15;10.80;;;6.85;;
30173;SDS011;16985;50.814;8.530;2022-10-30T04:05:42;10.00;;;6.70;;
30173;SDS011;16985;50.814;8.530;2022-10-30T04:08:12;13.82;;;7.38;;
30173;SDS011;16985;50.814;8.530;2022-10-30T04:10:42;8.23;;;5.65;;
30173;SDS011;16985;50.814;8.530;2022-10-30T04:13:10;12.45;;;6.97;;
30173;SDS011;16985;50.814;8.530;2022-10-30T04:15:46;10.13;;;6.38;;
30173;SDS011;16985;50.814;8.530;2022-10-30T04:18:13;10.25;;;5.50;;
30173;SDS011;16985;50.814;8.530;2022-10-30T04:20:40;9.35;;;5.97;;
30173;SDS011;16985;50.814;8.530;2022-10-30T04:23:07;8.88;;;5.82;;
30173;SDS011;16985;50.814;8.530;2022-10-30T04:25:38;8.63;;;6.57;;
30173;SDS011;16985;50.814;8.530;2022-10-30T04:28:05;8.57;;;6.55;;
30173;SDS011;16985;50.814;8.530;2022-10-30T04:30:31;16.00;;;6.25;;
30173;SDS011;16985;50.814;8.530;2022-10-30T04:35:28;9.20;;;6.38;;
30173;SDS011;16985;50.814;8.530;2022-10-30T04:40:29;19.73;;;8.73;;
30173;SDS011;16985;50.814;8.530;2022-10-30T04:43:02;13.70;;;6.82;;
30173;SDS011;16985;50.814;8.530;2022-10-30T04:45:29;11.38;;;7.13;;
30173;SDS011;16985;50.814;8.530;2022-10-30T04:48:02;18.50;;;8.13;;
30173;SDS011;16985;50.814;8.530;2022-10-30T04:50:31;15.82;;;7.50;;
30173;SDS011;16985;50.814;8.530;2022-10-30T04:52:59;17.55;;;7.97;;
30173;SDS011;16985;50.814;8.530;2022-10-30T04:55:29;17.38;;;7.43;;
30173;SDS011;16985;50.814;8.530;2022-10-30T04:57:56;13.20;;;7.35;;
30173;SDS011;16985;50.814;8.530;2022-10-30T05:00:23;16.92;;;8.43;;
30173;SDS011;16985;50.814;8.530;2022-10-30T05:02:52;17.33;;;8.02;;
30173;SDS011;16985;50.814;8.530;2022-10-30T05:05:19;17.73;;;8.27;;
30173;SDS011;16985;50.814;8.530;2022-10-30T05:07:46;16.63;;;8.35;;
30173;SDS011;16985;50.814;8.530;2022-10-30T05:10:12;20.13;;;7.93;;
30173;SDS011;16985;50.814;8.530;2022-10-30T05:12:42;15.90;;;8.02;;
30173;SDS011;16985;50.814;8.530;2022-10-30T05:15:10;13.48;;;7.90;;
30173;SDS011;16985;50.814;8.530;2022-10-30T05:17:37;16.03;;;8.77;;
30173;SDS011;16985;50.814;8.530;2022-10-30T05:20:04;20.45;;;8.70;;
30173;SDS011;16985;50.814;8.530;2022-10-30T05:22:30;19.20;;;8.95;;
30173;SDS011;16985;50.814;8.530;2022-10-30T05:24:56;25.27;;;8.98;;
30173;SDS011;16985;50.814;8.530;2022-10-30T05:27:22;16.00;;;7.63;;
30173;SDS011;16985;50.814;8.530;2022-10-30T05:29:48;19.73;;;8.25;;
30173;SDS011;16985;50.814;8.530;2022-10-30T05:32:14;16.52;;;8.60;;
30173;SDS011;16985;50.814;8.530;2022-10-30T05:34:44;17.08;;;7.75;;
30173;SDS011;16985;50.814;8.530;2022-10-30T05:39:39;20.60;;;8.55;;
30173;SDS011;16985;50.814;8.530;2022-10-30T05:42:12;17.08;;;9.25;;
30173;SDS011;16985;50.814;8.530;2022-10-30T05:44:41;18.15;;;9.10;;
30173;SDS011;16985;50.814;8.530;2022-10-30T05:47:07;14.15;;;7.47;;
30173;SDS011;16985;50.814;8.530;2022-10-30T05:49:36;19.67;;;9.85;;
30173;SDS011;16985;50.814;8.530;2022-10-30T05:52:05;16.90;;;8.43;;
30173;SDS011;16985;50.814;8.530;2022-10-30T05:54:31;14.60;;;7.60;;
30173;SDS011;16985;50.814;8.530;2022-10-30T05:57:17;10.50;;;6.28;;
30173;SDS011;16985;50.814;8.530;2022-10-30T05:59:43;11.75;;;6.57;;
30173;SDS011;16985;50.814;8.530;2022-10-30T06:02:08;11.30;;;6.25;;
30173;SDS011;16985;50.814;8.530;2022-10-30T06:04:35;10.73;;;6.55;;
30173;SDS011;16985;50.814;8.530;2022-10-30T06:07:03;8.52;;;5.90;;
30173;SDS011;16985;50.814;8.530;2022-10-30T06:09:29;8.45;;;6.18;;
30173;SDS011;16985;50.814;8.530;2022-10-30T06:12:16;12.05;;;6.78;;
30173;SDS011;16985;50.814;8.530;2022-10-30T06:14:50;11.75;;;7.00;;
30173;SDS011;16985;50.814;8.530;2022-10-30T06:17:16;13.15;;;7.60;;
30173;SDS011;16985;50.814;8.530;2022-10-30T06:20:02;10.48;;;6.55;;
30173;SDS011;16985;50.814;8.530;2022-10-30T06:22:54;11.60;;;7.78;;
30173;SDS011;16985;50.814;8.530;2022-10-30T06:25:33;13.95;;;7.60;;
30173;SDS011;16985;50.814;8.530;2022-10-30T06:28:19;14.68;;;7.20;;
30173;SDS011;16985;50.814;8.530;2022-10-30T06:30:44;14.75;;;7.00;;
30173;SDS011;16985;50.814;8.530;2022-10-30T06:33:10;13.75;;;7.25;;
30173;SDS011;16985;50.814;8.530;2022-10-30T06:35:40;17.88;;;7.68;;
30173;SDS011;16985;50.814;8.530;2022-10-30T06:38:06;12.13;;;7.72;;
30173;SDS011;16985;50.814;8.530;2022-10-30T06:40:34;16.17;;;8.07;;
30173;SDS011;16985;50.814;8.530;2022-10-30T06:43:30;16.08;;;7.13;;
30173;SDS011;16985;50.814;8.530;2022-10-30T06:46:14;14.73;;;7.28;;
30173;SDS011;16985;50.814;8.530;2022-10-30T06:48:41;14.60;;;7.97;;
30173;SDS011;16985;50.814;8.530;2022-10-30T06:51:07;19.10;;;8.10;;
30173;SDS011;16985;50.814;8.530;2022-10-30T06:53:37;18.98;;;8.00;;
30173;SDS011;16985;50.814;8.530;2022-10-30T06:56:26;12.25;;;8.00;;
30173;SDS011;16985;50.814;8.530;2022-10-30T06:59:21;12.88;;;7.72;;
30173;SDS011;16985;50.814;8.530;2022-10-30T07:01:53;14.75;;;7.20;;
30173;SDS011;16985;50.814;8.530;2022-10-30T07:04:21;12.77;;;7.32;;
30173;SDS011;16985;50.814;8.530;2022-10-30T07:06:47;10.43;;;6.55;;
30173;SDS011;16985;50.814;8.530;2022-10-30T07:09:13;10.75;;;6.18;;
30173;SDS011;16985;50.814;8.530;2022-10-30T07:11:39;13.43;;;7.20;;
30173;SDS011;16985;50.814;8.530;2022-10-30T07:14:17;13.35;;;7.63;;
30173;SDS011;16985;50.814;8.530;2022-10-30T07:16:52;10.98;;;7.05;;
30173;SDS011;16985;50.814;8.530;2022-10-30T07:19:19;10.80;;;6.65;;
30173;SDS011;16985;50.814;8.530;2022-10-30T07:21:46;12.70;;;6.63;;
30173;SDS011;16985;50.814;8.530;2022-10-30T07:24:11;8.68;;;5.60;;
30173;SDS011;16985;50.814;8.530;2022-10-30T07:27:13;10.18;;;6.20;;
30173;SDS011;16985;50.814;8.530;2022-10-30T07:29:53;10.40;;;7.32;;
30173;SDS011;16985;50.814;8.530;2022-10-30T07:32:23;10.63;;;7.05;;
30173;SDS011;16985;50.814;8.530;2022-10-30T07:35:07;10.95;;;6.43;;
30173;SDS011;16985;50.814;8.530;2022-10-30T07:37:52;8.38;;;6.40;;
30173;SDS011;16985;50.814;8.530;2022-10-30T07:40:19;8.15;;;6.65;;
30173;SDS011;16985;50.814;8.530;2022-10-30T07:42:55;13.18;;;7.57;;
30173;SDS011;16985;50.814;8.530;2022-10-30T07:45:29;9.93;;;6.88;;
30173;SDS011;16985;50.814;8.530;2022-10-30T07:48:27;10.15;;;7.55;;
30173;SDS011;16985;50.814;8.530;2022-10-30T07:51:05;10.93;;;7.53;;
30173;SDS011;16985;50.814;8.530;2022-10-30T07:53:31;12.90;;;9.05;;
30173;SDS011;16985;50.814;8.530;2022-10-30T07:55:57;13.80;;;9.05;;
30173;SDS011;16985;50.814;8.530;2022-10-30T07:58:55;14.18;;;9.02;;
30173;SDS011;16985;50.814;8.530;2022-10-30T08:01:43;14.43;;;9.13;;
30173;SDS011;16985;50.814;8.530;2022-10-30T08:04:21;12.32;;;9.20;;
30173;SDS011;16985;50.814;8.530;2022-10-30T08:06:47;11.35;;;8.80;;
30173;SDS011;16985;50.814;8.530;2022-10-30T08:09:13;13.40;;;9.70;;
30173;SDS011;16985;50.814;8.530;2022-10-30T08:11:39;10.93;;;8.40;;
30173;SDS011;16985;50.814;8.530;2022-10-30T08:14:04;11.23;;;8.32;;
30173;SDS011;16985;50.814;8.530;2022-10-30T08:16:30;12.70;;;9.00;;
30173;SDS011;16985;50.814;8.530;2022-10-30T08:18:56;12.70;;;9.05;;
30173;SDS011;16985;50.814;8.530;2022-10-30T08:21:23;10.90;;;8.45;;
30173;SDS011;16985;50.814;8.530;2022-10-30T08:23:56;12.70;;;8.57;;
30173;SDS011;16985;50.814;8.530;2022-10-30T08:26:26;14.25;;;8.95;;
30173;SDS011;16985;50.814;8.530;2022-10-30T08:28:51;9.57;;;7.68;;
30173;SDS011;16985;50.814;8.530;2022-10-30T08:31:18;11.32;;;8.13;;
30173;SDS011;16985;50.814;8.530;2022-10-30T08:34:09;11.48;;;8.07;;
30173;SDS011;16985;50.814;8.530;2022-10-30T08:36:35;12.32;;;7.88;;
30173;SDS011;16985;50.814;8.530;2022-10-30T08:39:01;12.57;;;8.05;;
30173;SDS011;16985;50.814;8.530;2022-10-30T08:42:03;11.18;;;7.75;;
30173;SDS011;16985;50.814;8.530;2022-10-30T08:44:35;13.88;;;8.88;;
30173;SDS011;16985;50.814;8.530;2022-10-30T08:47:19;11.68;;;8.15;;
30173;SDS011;16985;50.814;8.530;2022-10-30T08:49:45;13.98;;;8.25;;
30173;SDS011;16985;50.814;8.530;2022-10-30T08:52:14;14.75;;;8.43;;
30173;SDS011;16985;50.814;8.530;2022-10-30T08:54:46;11.55;;;7.72;;
30173;SDS011;16985;50.814;8.530;2022-10-30T08:57:11;11.73;;;7.53;;
30173;SDS011;16985;50.814;8.530;2022-10-30T08:59:38;11.40;;;7.68;;
30173;SDS011;16985;50.814;8.530;2022-10-30T09:02:04;11.18;;;7.57;;
30173;SDS011;16985;50.814;8.530;2022-10-30T09:05:00;12.30;;;7.90;;
30173;SDS011;16985;50.814;8.530;2022-10-30T09:07:45;17.33;;;7.72;;
30173;SDS011;16985;50.814;8.530;2022-10-30T09:10:43;10.80;;;7.40;;
30173;SDS011;16985;50.814;8.530;2022-10-30T09:13:09;10.02;;;7.30;;
30173;SDS011;16985;50.814;8.530;2022-10-30T09:15:35;18.08;;;9.77;;
30173;SDS011;16985;50.814;8.530;2022-10-30T09:18:01;15.98;;;8.23;;
30173;SDS011;16985;50.814;8.530;2022-10-30T09:20:29;18.25;;;9.00;;
30173;SDS011;16985;50.814;8.530;2022-10-30T09:22:56;24.27;;;10.90;;
30173;SDS011;16985;50.814;8.530;2022-10-30T09:25:22;18.90;;;10.07;;
30173;SDS011;16985;50.814;8.530;2022-10-30T09:27:55;19.80;;;11.15;;
30173;SDS011;16985;50.814;8.530;2022-10-30T09:30:24;22.20;;;11.55;;
30173;SDS011;16985;50.814;8.530;2022-10-30T09:32:58;18.50;;;10.93;;
30173;SDS011;16985;50.814;8.530;2022-10-30T09:35:52;22.48;;;12.02;;
30173;SDS011;16985;50.814;8.530;2022-10-30T09:38:17;22.00;;;11.95;;
30173;SDS011;16985;50.814;8.530;2022-10-30T09:47:07;17.10;;;10.93;;
30173;SDS011;16985;50.814;8.530;2022-10-30T09:53:14;22.40;;;11.32;;
30173;SDS011;16985;50.814;8.530;2022-10-30T09:59:07;28.75;;;13.07;;
30173;SDS011;16985;50.814;8.530;2022-10-30T10:01:52;26.48;;;14.35;;
30173;SDS011;16985;50.814;8.530;2022-10-30T10:04:33;33.70;;;14.15;;
30173;SDS011;16985;50.814;8.530;2022-10-30T10:08:00;24.52;;;11.23;;
30173;SDS011;16985;50.814;8.530;2022-10-30T10:11:07;24.33;;;11.32;;
30173;SDS011;16985;50.814;8.530;2022-10-30T10:13:42;18.40;;;11.75;;
30173;SDS011;16985;50.814;8.530;2022-10-30T10:16:32;19.63;;;11.38;;
30173;SDS011;16985;50.814;8.530;2022-10-30T10:19:12;23.38;;;11.48;;
30173;SDS011;16985;50.814;8.530;2022-10-30T10:21:45;18.85;;;11.48;;
30173;SDS011;16985;50.814;8.530;2022-10-30T10:24:41;20.10;;;10.80;;
30173;SDS011;16985;50.814;8.530;2022-10-30T10:41:19;17.52;;;10.18;;
30173;SDS011;16985;50.814;8.530;2022-10-30T10:50:23;17.90;;;10.20;;
30173;SDS011;16985;50.814;8.530;2022-10-30T10:53:18;24.50;;;10.60;;
30173;SDS011;16985;50.814;8.530;2022-10-30T10:55:51;19.85;;;9.10;;
30173;SDS011;16985;50.814;8.530;2022-10-30T10:58:43;25.85;;;10.05;;
30173;SDS011;16985;50.814;8.530;2022-10-30T11:01:21;18.45;;;9.27;;
30173;SDS011;16985;50.814;8.530;2022-10-30T11:03:59;20.58;;;9.55;;
30173;SDS011;16985;50.814;8.530;2022-10-30T11:06:34;21.27;;;9.70;;
30173;SDS011;16985;50.814;8.530;2022-10-30T11:11:49;13.75;;;8.68;;
30173;SDS011;16985;50.814;8.530;2022-10-30T11:14:24;15.65;;;8.82;;
30173;SDS011;16985;50.814;8.530;2022-10-30T11:19:36;15.13;;;8.32;;
30173;SDS011;16985;50.814;8.530;2022-10-30T11:22:02;11.55;;;7.97;;
30173;SDS011;16985;50.814;8.530;2022-10-30T11:24:53;12.43;;;7.93;;
30173;SDS011;16985;50.814;8.530;2022-10-30T11:30:02;12.80;;;8.65;;
30173;SDS011;16985;50.814;8.530;2022-10-30T11:32:41;17.38;;;7.85;;
30173;SDS011;16985;50.814;8.530;2022-10-30T11:37:36;16.88;;;7.43;;
30173;SDS011;16985;50.814;8.530;2022-10-30T11:40:05;17.95;;;7.57;;
30173;SDS011;16985;50.814;8.530;2022-10-30T11:42:57;15.50;;;7.22;;
30173;SDS011;16985;50.814;8.530;2022-10-30T11:45:27;16.30;;;8.00;;
30173;SDS011;16985;50.814;8.530;2022-10-30T11:48:00;15.82;;;7.63;;
30173;SDS011;16985;50.814;8.530;2022-10-30T11:50:33;15.25;;;7.45;;
30173;SDS011;16985;50.814;8.530;2022-10-30T11:53:00;16.77;;;6.65;;
30173;SDS011;16985;50.814;8.530;2022-10-30T11:55:40;17.48;;;7.72;;
30173;SDS011;16985;50.814;8.530;2022-10-30T11:58:19;19.55;;;7.53;;
30173;SDS011;16985;50.814;8.530;2022-10-30T12:01:02;15.38;;;6.40;;
30173;SDS011;16985;50.814;8.530;2022-10-30T12:03:35;15.43;;;6.60;;
30173;SDS011;16985;50.814;8.530;2022-10-30T12:06:07;13.68;;;7.38;;
30173;SDS011;16985;50.814;8.530;2022-10-30T12:11:47;13.75;;;7.53;;
30173;SDS011;16985;50.814;8.530;2022-10-30T12:14:15;13.82;;;7.15;;
30173;SDS011;16985;50.814;8.530;2022-10-30T12:16:46;11.73;;;6.18;;
30173;SDS011;16985;50.814;8.530;2022-10-30T12:19:15;15.50;;;6.63;;
30173;SDS011;16985;50.814;8.530;2022-10-30T12:21:47;10.07;;;6.32;;
30173;SDS011;16985;50.814;8.530;2022-10-30T12:24:36;13.13;;;7.13;;
30173;SDS011;16985;50.814;8.530;2022-10-30T12:27:05;12.60;;;6.60;;
30173;SDS011;16985;50.814;8.530;2022-10-30T12:32:31;13.77;;;5.60;;
30173;SDS011;16985;50.814;8.530;2022-10-30T12:35:30;11.32;;;6.32;;
30173;SDS011;16985;50.814;8.530;2022-10-30T12:38:15;14.98;;;6.70;;
30173;SDS011;16985;50.814;8.530;2022-10-30T12:40:57;13.93;;;6.57;;
30173;SDS011;16985;50.814;8.530;2022-10-30T12:49:52;13.35;;;6.43;;
30173;SDS011;16985;50.814;8.530;2022-10-30T12:55:35;13.15;;;6.30;;
30173;SDS011;16985;50.814;8.530;2022-10-30T12:58:20;11.52;;;6.13;;
30173;SDS011;16985;50.814;8.530;2022-10-30T13:03:45;12.35;;;5.72;;
30173;SDS011;16985;50.814;8.530;2022-10-30T13:06:29;10.90;;;5.22;;
30173;SDS011;16985;50.814;8.530;2022-10-30T13:14:37;20.33;;;5.93;;
30173;SDS011;16985;50.814;8.530;2022-10-30T13:17:12;12.23;;;5.95;;
30173;SDS011;16985;50.814;8.530;2022-10-30T13:19:39;15.25;;;5.93;;
30173;SDS011;16985;50.814;8.530;2022-10-30T13:22:07;11.10;;;5.47;;
30173;SDS011;16985;50.814;8.530;2022-10-30T13:27:27;13.02;;;5.63;;
30173;SDS011;16985;50.814;8.530;2022-10-30T13:30:20;12.15;;;6.07;;
30173;SDS011;16985;50.814;8.530;2022-10-30T13:40:57;10.10;;;5.60;;
30173;SDS011;16985;50.814;8.530;2022-10-30T13:49:31;11.68;;;5.45;;
30173;SDS011;16985;50.814;8.530;2022-10-30T14:09:32;13.88;;;6.22;;
30173;SDS011;16985;50.814;8.530;2022-10-30T14:13:12;14.55;;;6.63;;
30173;SDS011;16985;50.814;8.530;2022-10-30T14:28:30;17.10;;;6.07;;
30173;SDS011;16985;50.814;8.530;2022-10-30T14:31:01;13.13;;;5.88;;
30173;SDS011;16985;50.814;8.530;2022-10-30T14:33:41;11.30;;;5.85;;
30173;SDS011;16985;50.814;8.530;2022-10-30T14:36:16;16.23;;;6.10;;
30173;SDS011;16985;50.814;8.530;2022-10-30T14:38:57;17.25;;;5.95;;
30173;SDS011;16985;50.814;8.530;2022-10-30T14:41:36;8.80;;;5.45;;
30173;SDS011;16985;50.814;8.530;2022-10-30T14:49:59;10.90;;;6.20;;
30173;SDS011;16985;50.814;8.530;2022-10-30T14:52:50;15.35;;;6.57;;
30173;SDS011;16985;50.814;8.530;2022-10-30T14:55:49;14.90;;;6.75;;
30173;SDS011;16985;50.814;8.530;2022-10-30T14:58:30;16.40;;;6.38;;
30173;SDS011;16985;50.814;8.530;2022-10-30T15:03:51;17.80;;;6.65;;
30173;SDS011;16985;50.814;8.530;2022-10-30T15:15:00;16.70;;;7.13;;
30173;SDS011;16985;50.814;8.530;2022-10-30T15:20:04;16.88;;;6.47;;
30173;SDS011;16985;50.814;8.530;2022-10-30T15:22:53;19.27;;;5.53;;
30173;SDS011;16985;50.814;8.530;2022-10-30T15:25:23;27.20;;;6.80;;
30173;SDS011;16985;50.814;8.530;2022-10-30T15:27:54;20.00;;;7.07;;
30173;SDS011;16985;50.814;8.530;2022-10-30T15:30:22;15.55;;;6.00;;
30173;SDS011;16985;50.814;8.530;2022-10-30T15:32:50;18.15;;;6.10;;
30173;SDS011;16985;50.814;8.530;2022-10-30T15:40:26;13.68;;;6.78;;
30173;SDS011;16985;50.814;8.530;2022-10-30T15:42:53;20.90;;;7.05;;
30173;SDS011;16985;50.814;8.530;2022-10-30T15:45:29;24.03;;;7.47;;
30173;SDS011;16985;50.814;8.530;2022-10-30T15:51:02;21.17;;;7.65;;
30173;SDS011;16985;50.814;8.530;2022-10-30T15:56:00;19.10;;;8.93;;
30173;SDS011;16985;50.814;8.530;2022-10-30T15:58:26;21.50;;;9.75;;
30173;SDS011;16985;50.814;8.530;2022-10-30T16:01:00;24.20;;;9.63;;
30173;SDS011;16985;50.814;8.530;2022-10-30T16:03:28;21.27;;;8.90;;
30173;SDS011;16985;50.814;8.530;2022-10-30T16:06:04;27.52;;;9.05;;
30173;SDS011;16985;50.814;8.530;2022-10-30T16:08:42;16.83;;;8.10;;
30173;SDS011;16985;50.814;8.530;2022-10-30T16:11:11;29.30;;;8.13;;
30173;SDS011;16985;50.814;8.530;2022-10-30T16:13:38;21.60;;;8.97;;
30173;SDS011;16985;50.814;8.530;2022-10-30T16:16:06;18.85;;;6.72;;
30173;SDS011;16985;50.814;8.530;2022-10-30T16:18:38;18.75;;;7.82;;
30173;SDS011;16985;50.814;8.530;2022-10-30T16:21:05;23.50;;;8.48;;
30173;SDS011;16985;50.814;8.530;2022-10-30T16:23:37;20.30;;;7.65;;
30173;SDS011;16985;50.814;8.530;2022-10-30T16:26:05;16.08;;;7.20;;
30173;SDS011;16985;50.814;8.530;2022-10-30T16:28:49;16.33;;;6.78;;
30173;SDS011;16985;50.814;8.530;2022-10-30T16:31:15;20.27;;;6.95;;
30173;SDS011;16985;50.814;8.530;2022-10-30T16:33:44;15.32;;;6.60;;
30173;SDS011;16985;50.814;8.530;2022-10-30T16:36:11;28.00;;;7.85;;
30173;SDS011;16985;50.814;8.530;2022-10-30T16:38:41;13.23;;;6.40;;
30173;SDS011;16985;50.814;8.530;2022-10-30T16:41:10;11.75;;;7.20;;
30173;SDS011;16985;50.814;8.530;2022-10-30T16:43:38;10.73;;;6.72;;
30173;SDS011;16985;50.814;8.530;2022-10-30T16:48:38;26.38;;;8.73;;
30173;SDS011;16985;50.814;8.530;2022-10-30T16:51:37;17.30;;;7.85;;
30173;SDS011;16985;50.814;8.530;2022-10-30T16:54:03;20.48;;;9.75;;
30173;SDS011;16985;50.814;8.530;2022-10-30T16:56:30;18.27;;;8.23;;
30173;SDS011;16985;50.814;8.530;2022-10-30T16:58:57;20.77;;;10.48;;
30173;SDS011;16985;50.814;8.530;2022-10-30T17:01:41;31.55;;;15.27;;
30173;SDS011;16985;50.814;8.530;2022-10-30T17:04:10;28.17;;;12.38;;
30173;SDS011;16985;50.814;8.530;2022-10-30T17:06:41;35.50;;;16.05;;
30173;SDS011;16985;50.814;8.530;2022-10-30T17:09:14;30.08;;;17.45;;
30173;SDS011;16985;50.814;8.530;2022-10-30T17:17:33;49.30;;;21.17;;
30173;SDS011;16985;50.814;8.530;2022-10-30T17:22:31;52.55;;;22.52;;
30173;SDS011;16985;50.814;8.530;2022-10-30T17:24:58;44.30;;;21.77;;
30173;SDS011;16985;50.814;8.530;2022-10-30T17:29:54;38.58;;;17.10;;
30173;SDS011;16985;50.814;8.530;2022-10-30T17:32:20;29.65;;;14.98;;
30173;SDS011;16985;50.814;8.530;2022-10-30T17:34:56;28.90;;;13.40;;
30173;SDS011;16985;50.814;8.530;2022-10-30T17:37:37;27.90;;;11.57;;
30173;SDS011;16985;50.814;8.530;2022-10-30T17:40:03;22.23;;;10.73;;
30173;SDS011;16985;50.814;8.530;2022-10-30T17:42:29;21.42;;;9.73;;
30173;SDS011;16985;50.814;8.530;2022-10-30T17:44:55;27.90;;;10.18;;
30173;SDS011;16985;50.814;8.530;2022-10-30T17:47:21;18.77;;;10.00;;
30173;SDS011;16985;50.814;8.530;2022-10-30T17:49:47;29.98;;;9.50;;
30173;SDS011;16985;50.814;8.530;2022-10-30T17:52:14;22.88;;;9.30;;
30173;SDS011;16985;50.814;8.530;2022-10-30T17:54:42;20.73;;;9.05;;
30173;SDS011;16985;50.814;8.530;2022-10-30T17:57:12;14.52;;;8.63;;
30173;SDS011;16985;50.814;8.530;2022-10-30T17:59:39;19.83;;;8.32;;
30173;SDS011;16985;50.814;8.530;2022-10-30T18:02:13;16.48;;;7.78;;
30173;SDS011;16985;50.814;8.530;2022-10-30T18:04:43;18.05;;;9.07;;
30173;SDS011;16985;50.814;8.530;2022-10-30T18:07:11;23.27;;;9.38;;
30173;SDS011;16985;50.814;8.530;2022-10-30T18:09:39;22.08;;;9.52;;
30173;SDS011;16985;50.814;8.530;2022-10-30T18:12:06;21.23;;;8.73;;
30173;SDS011;16985;50.814;8.530;2022-10-30T18:14:37;22.88;;;9.93;;
30173;SDS011;16985;50.814;8.530;2022-10-30T18:17:04;23.05;;;9.90;;
30173;SDS011;16985;50.814;8.530;2022-10-30T18:19:30;35.22;;;10.00;;
30173;SDS011;16985;50.814;8.530;2022-10-30T18:21:56;18.30;;;9.35;;